Time;durP1;ratioP1;P1;durP2;ratioP2;P2;SDS_P1;SDS_P2;PMS_P1;PMS_P2;Temp;Humidity;BMP_temperature;BMP_pressure;BME280_temperature;BME280_humidity;BME280_pressure;Samples;Min_cycle;Max_cycle;Signal;HPM_P1;HPM_P2
2020/12/03 00:00:31;;;;;;;52.20;17.85;;;;;;;-0.43;88.26;100517.16;4218721;28;20039;-40
2020/12/03 00:02:34;;;;;;;60.63;19.05;;;;;;;-0.43;88.06;100518.06;4206408;28;20506;-40
2020/12/03 00:04:35;;;;;;;45.33;15.52;;;;;;;-0.43;88.28;100520.63;4213516;28;20778;-41
2020/12/03 00:06:42;;;;;;;60.47;19.73;;;;;;;-0.43;88.26;100525.72;4223393;28;20044;-40
2020/12/03 00:08:48;;;;;;;51.92;17.23;;;;;;;-0.42;88.06;100524.03;4194765;28;20056;-40
2020/12/03 00:10:49;;;;;;;49.97;17.65;;;;;;;-0.42;88.03;100526.59;4223448;28;20059;-40
2020/12/03 00:13:03;;;;;;;44.83;16.77;;;;;;;-0.41;88.24;100528.34;4217569;28;20046;-40
2020/12/03 00:15:04;;;;;;;45.63;17.50;;;;;;;-0.41;88.17;100525.78;4223573;28;20047;-40
2020/12/03 00:17:06;;;;;;;52.42;17.38;;;;;;;-0.41;88.47;100518.16;4224791;28;20459;-40
2020/12/03 00:19:10;;;;;;;50.90;17.45;;;;;;;-0.41;88.52;100521.59;4221158;28;20067;-40
2020/12/03 00:21:12;;;;;;;47.17;17.05;;;;;;;-0.41;88.36;100513.97;4223534;28;20100;-54
2020/12/03 00:23:13;;;;;;;44.50;16.80;;;;;;;-0.40;88.49;100514.84;4221468;28;20552;-40
2020/12/03 00:25:16;;;;;;;59.67;19.83;;;;;;;-0.41;88.34;100519.06;4224389;28;20425;-40
2020/12/03 00:27:17;;;;;;;50.17;17.20;;;;;;;-0.40;88.26;100512.28;4228642;28;20048;-40
2020/12/03 00:29:20;;;;;;;53.80;17.80;;;;;;;-0.41;88.27;100508.88;4224981;28;20047;-52
2020/12/03 00:31:22;;;;;;;59.15;19.38;;;;;;;-0.40;88.36;100510.63;4221086;28;20048;-40
2020/12/03 00:33:24;;;;;;;49.13;18.58;;;;;;;-0.39;88.48;100514.06;4224713;28;20078;-40
2020/12/03 00:35:26;;;;;;;52.25;17.92;;;;;;;-0.39;88.58;100511.53;4226183;28;20466;-53
2020/12/03 00:37:28;;;;;;;52.47;18.40;;;;;;;-0.39;88.35;100501.34;4228849;28;20527;-51
2020/12/03 00:39:29;;;;;;;50.72;16.52;;;;;;;-0.38;88.31;100513.28;4223555;28;20558;-40
2020/12/03 00:41:32;;;;;;;51.65;17.40;;;;;;;-0.39;88.49;100501.34;4220388;28;20047;-40
2020/12/03 00:43:34;;;;;;;47.63;17.63;;;;;;;-0.39;88.40;100502.19;4211657;28;20043;-40
2020/12/03 00:45:35;;;;;;;49.08;17.20;;;;;;;-0.39;88.40;100502.19;4227293;28;20512;-40
2020/12/03 00:47:39;;;;;;;49.80;17.17;;;;;;;-0.39;88.24;100503.88;4224397;28;20051;-40
2020/12/03 00:49:40;;;;;;;48.55;17.60;;;;;;;-0.39;88.34;100503.88;4221073;28;20059;-41
2020/12/03 00:51:42;;;;;;;49.85;17.95;;;;;;;-0.40;88.15;100502.09;4222819;28;20048;-55
2020/12/03 00:53:43;;;;;;;57.63;20.67;;;;;;;-0.40;88.38;100507.19;4195754;28;20053;-53
2020/12/03 00:55:46;;;;;;;51.78;17.20;;;;;;;-0.41;88.42;100501.22;4223416;28;20073;-54
2020/12/03 00:57:48;;;;;;;48.58;17.67;;;;;;;-0.41;88.05;100498.66;4223103;28;20046;-40
2020/12/03 00:59:49;;;;;;;53.33;19.35;;;;;;;-0.41;88.32;100498.66;4222095;28;20040;-40
2020/12/03 01:01:51;;;;;;;47.45;17.27;;;;;;;-0.41;88.20;100503.75;4228253;28;20051;-40
2020/12/03 01:03:52;;;;;;;55.25;19.50;;;;;;;-0.40;88.39;100497.00;4223613;28;20108;-41
2020/12/03 01:05:54;;;;;;;53.88;19.40;;;;;;;-0.40;88.19;100497.88;4224619;28;20044;-40
2020/12/03 01:07:55;;;;;;;60.35;21.20;;;;;;;-0.39;88.43;100497.09;4224297;28;20051;-53
2020/12/03 01:09:57;;;;;;;57.70;21.17;;;;;;;-0.37;88.45;100497.22;4224553;28;20451;-55
2020/12/03 01:11:58;;;;;;;50.38;18.20;;;;;;;-0.36;88.48;100487.13;4226598;28;20067;-53
2020/12/03 01:14:00;;;;;;;59.35;20.77;;;;;;;-0.35;88.61;100493.09;4224539;28;20443;-54
2020/12/03 01:16:02;;;;;;;56.97;21.90;;;;;;;-0.34;88.73;100492.34;4216161;28;20051;-53
2020/12/03 01:18:03;;;;;;;62.65;22.13;;;;;;;-0.34;88.90;100492.34;4223983;28;20082;-40
2020/12/03 01:20:08;;;;;;;56.97;21.38;;;;;;;-0.33;88.86;100491.56;4214398;28;20063;-54
2020/12/03 01:22:09;;;;;;;57.53;22.20;;;;;;;-0.34;89.04;100492.34;4223436;28;20053;-54
2020/12/03 01:24:11;;;;;;;58.95;20.83;;;;;;;-0.36;88.98;100492.22;4225210;28;20493;-40
2020/12/03 01:26:15;;;;;;;54.22;19.85;;;;;;;-0.36;88.81;100489.69;4222318;28;20415;-41
2020/12/03 01:28:16;;;;;;;55.00;19.48;;;;;;;-0.37;88.99;100490.44;4227936;28;20072;-53
2020/12/03 01:30:19;;;;;;;61.97;23.30;;;;;;;-0.39;88.74;100486.91;4227521;28;20054;-40
2020/12/03 01:32:21;;;;;;;58.50;21.23;;;;;;;-0.37;89.21;100484.47;4227177;28;20048;-40
2020/12/03 01:34:23;;;;;;;57.20;20.88;;;;;;;-0.38;88.99;100488.69;4224422;28;20054;-54
2020/12/03 01:36:24;;;;;;;57.35;21.75;;;;;;;-0.39;89.22;100484.38;4225600;28;20110;-55
2020/12/03 01:38:26;;;;;;;60.85;20.90;;;;;;;-0.39;89.08;100492.00;4230947;28;20047;-40
2020/12/03 01:40:27;;;;;;;52.80;20.55;;;;;;;-0.39;89.00;100484.38;4224522;28;20508;-40
2020/12/03 01:42:29;;;;;;;59.47;19.38;;;;;;;-0.38;89.04;100485.25;4224576;28;20488;-40
2020/12/03 01:44:37;;;;;;;56.85;22.08;;;;;;;-0.40;89.33;100479.16;4225791;28;20086;-40
2020/12/03 01:46:40;;;;;;;54.55;19.95;;;;;;;-0.39;88.93;100486.03;4198322;28;20425;-40
2020/12/03 01:48:46;;;;;;;61.78;20.65;;;;;;;-0.39;88.99;100488.59;4227169;28;20090;-55
2020/12/03 01:50:48;;;;;;;60.92;20.30;;;;;;;-0.40;88.89;100481.69;4225539;28;20055;-40
2020/12/03 01:52:49;;;;;;;57.00;20.95;;;;;;;-0.40;89.28;100482.56;4223324;28;20538;-40
2020/12/03 01:54:51;;;;;;;59.90;22.73;;;;;;;-0.39;89.31;100486.03;4230139;28;20054;-40
2020/12/03 01:57:05;;;;;;;63.20;21.08;;;;;;;-0.40;89.30;100486.81;4228780;28;20047;-51
2020/12/03 01:59:08;;;;;;;64.03;20.73;;;;;;;-0.41;89.13;100478.28;4224440;28;20101;-40
2020/12/03 02:01:10;;;;;;;65.72;19.92;;;;;;;-0.41;89.50;100480.81;4226694;28;20071;-40
2020/12/03 02:03:12;;;;;;;56.22;20.45;;;;;;;-0.42;89.50;100473.94;4225172;28;20075;-40
2020/12/03 02:05:16;;;;;;;52.05;19.33;;;;;;;-0.42;89.23;100484.13;4216156;28;20048;-40
2020/12/03 02:07:18;;;;;;;57.83;21.10;;;;;;;-0.44;89.21;100474.63;4229054;28;20514;-41
2020/12/03 02:09:19;;;;;;;55.38;19.70;;;;;;;-0.44;89.19;100482.28;4225123;28;20086;-51
2020/12/03 02:11:23;;;;;;;62.53;22.65;;;;;;;-0.45;89.02;100478.81;4226908;28;20044;-55
2020/12/03 02:13:25;;;;;;;63.67;19.95;;;;;;;-0.46;89.42;100479.63;4225672;28;20501;-40
2020/12/03 02:15:30;;;;;;;59.35;21.42;;;;;;;-0.47;89.43;100484.59;4220477;28;20056;-40
2020/12/03 02:17:32;;;;;;;63.28;21.30;;;;;;;-0.47;89.50;100490.56;4225926;28;20066;-40
2020/12/03 02:19:34;;;;;;;67.25;20.83;;;;;;;-0.46;89.37;100486.38;4221596;28;20050;-40
2020/12/03 02:21:36;;;;;;;67.20;22.52;;;;;;;-0.46;89.42;100486.38;4222609;28;20052;-40
2020/12/03 02:23:37;;;;;;;61.17;20.10;;;;;;;-0.46;89.52;100488.94;4219813;28;20076;-55
2020/12/03 02:25:39;;;;;;;53.55;18.30;;;;;;;-0.47;89.31;100485.47;4222968;28;20044;-54
2020/12/03 02:27:42;;;;;;;80.70;24.92;;;;;;;-0.47;89.44;100488.03;4220169;28;20051;-52
2020/12/03 02:29:44;;;;;;;65.95;22.90;;;;;;;-0.48;89.31;100486.28;4223779;28;20048;-54
2020/12/03 02:31:46;;;;;;;58.35;21.63;;;;;;;-0.47;89.47;100489.69;4226797;28;20047;-54
2020/12/03 02:33:48;;;;;;;70.10;23.05;;;;;;;-0.49;89.29;100487.03;4229823;28;20051;-40
2020/12/03 02:35:49;;;;;;;60.80;21.75;;;;;;;-0.48;89.30;100493.00;4224166;28;20140;-40
2020/12/03 02:37:51;;;;;;;57.33;20.92;;;;;;;-0.48;89.54;100482.81;4225007;28;20051;-40
2020/12/03 02:39:54;;;;;;;66.47;23.45;;;;;;;-0.48;89.60;100481.19;4224920;28;20179;-40
2020/12/03 02:41:55;;;;;;;74.32;23.42;;;;;;;-0.49;89.69;100487.03;4216976;28;20047;-40
2020/12/03 02:43:56;;;;;;;61.38;20.50;;;;;;;-0.48;89.45;100482.81;4220783;28;20047;-40
2020/12/03 02:45:58;;;;;;;59.95;22.65;;;;;;;-0.48;89.51;100485.34;4220818;28;20044;-53
2020/12/03 02:47:59;;;;;;;58.63;21.63;;;;;;;-0.47;89.62;100480.38;4211843;28;20055;-55
2020/12/03 02:50:02;;;;;;;69.70;22.27;;;;;;;-0.45;89.81;100483.03;4204052;28;20471;-40
2020/12/03 02:52:03;;;;;;;56.05;20.30;;;;;;;-0.44;89.73;100478.06;4218209;28;20047;-40
2020/12/03 02:54:05;;;;;;;62.80;22.63;;;;;;;-0.44;89.59;100474.63;4219211;28;20058;-41
2020/12/03 02:56:07;;;;;;;62.90;22.45;;;;;;;-0.43;89.72;100481.47;4226471;28;20481;-40
2020/12/03 02:58:09;;;;;;;64.40;23.17;;;;;;;-0.45;89.44;100473.72;4229506;28;20055;-40
2020/12/03 03:00:10;;;;;;;64.00;23.48;;;;;;;-0.44;89.61;100475.50;4212433;28;20389;-41
2020/12/03 03:02:12;;;;;;;64.57;22.25;;;;;;;-0.44;89.75;100477.19;4219179;28;20047;-40
2020/12/03 03:04:13;;;;;;;64.90;22.23;;;;;;;-0.45;89.80;100478.81;4223681;28;20485;-54
2020/12/03 03:06:15;;;;;;;58.47;20.60;;;;;;;-0.44;89.90;100482.28;4216329;28;20052;-55
2020/12/03 03:08:16;;;;;;;54.90;20.52;;;;;;;-0.44;89.75;100482.28;4225152;28;20048;-54
2020/12/03 03:10:21;;;;;;;62.10;21.23;;;;;;;-0.46;89.83;100479.63;4223242;28;20077;-54
2020/12/03 03:12:25;;;;;;;61.28;21.58;;;;;;;-0.46;89.71;100476.19;4223494;28;20045;-54
2020/12/03 03:14:27;;;;;;;66.28;23.85;;;;;;;-0.47;89.83;100480.38;4227928;28;20051;-40
2020/12/03 03:16:29;;;;;;;62.97;23.02;;;;;;;-0.48;89.49;100476.06;4227317;28;20051;-40
2020/12/03 03:18:31;;;;;;;67.60;20.98;;;;;;;-0.50;89.87;100480.19;4224178;28;20048;-56
2020/12/03 03:20:32;;;;;;;66.28;21.13;;;;;;;-0.50;89.65;100480.19;4209913;28;20052;-53
2020/12/03 03:22:34;;;;;;;70.25;23.27;;;;;;;-0.51;89.82;100472.44;4197820;28;20059;-54
2020/12/03 03:24:35;;;;;;;68.80;23.40;;;;;;;-0.52;89.82;100468.97;4227618;28;20074;-55
2020/12/03 03:26:37;;;;;;;66.30;22.25;;;;;;;-0.53;89.84;100472.31;4225639;28;20055;-52
2020/12/03 03:28:39;;;;;;;65.57;21.00;;;;;;;-0.54;89.72;100470.53;4221847;28;20051;-40
2020/12/03 03:30:40;;;;;;;69.45;21.65;;;;;;;-0.55;89.99;100468.78;4224520;28;20048;-41
2020/12/03 03:32:42;;;;;;;67.97;24.63;;;;;;;-0.55;89.93;100476.41;4229798;28;20057;-40
2020/12/03 03:34:43;;;;;;;83.97;24.92;;;;;;;-0.56;90.22;100475.50;4224547;28;20104;-54
2020/12/03 03:36:45;;;;;;;56.58;20.25;;;;;;;-0.57;90.02;100475.41;4215529;28;20045;-50
2020/12/03 03:38:46;;;;;;;69.90;23.70;;;;;;;-0.58;90.06;100476.19;4200139;28;20481;-41
2020/12/03 03:40:48;;;;;;;67.75;23.08;;;;;;;-0.59;90.19;100477.88;4229962;28;20047;-40
2020/12/03 03:42:50;;;;;;;62.28;21.98;;;;;;;-0.58;90.33;100473.66;4223683;28;20574;-40
2020/12/03 03:44:51;;;;;;;63.92;20.83;;;;;;;-0.60;90.09;100470.13;4225633;28;20416;-55
2020/12/03 03:46:53;;;;;;;62.03;20.77;;;;;;;-0.61;90.07;100478.53;4224144;28;20062;-52
2020/12/03 03:48:54;;;;;;;65.60;22.75;;;;;;;-0.63;90.16;100472.44;4226956;28;20052;-40
2020/12/03 03:50:56;;;;;;;74.22;22.48;;;;;;;-0.64;90.33;100478.28;4227474;28;20047;-41
2020/12/03 03:52:57;;;;;;;69.32;23.33;;;;;;;-0.65;90.34;100482.50;4220979;28;20054;-41
2020/12/03 03:54:59;;;;;;;74.75;22.88;;;;;;;-0.68;90.18;100479.75;4225419;28;20043;-40
2020/12/03 03:57:00;;;;;;;77.65;24.30;;;;;;;-0.68;90.11;100478.88;4214034;28;20055;-54
2020/12/03 03:59:02;;;;;;;69.47;24.60;;;;;;;-0.70;90.12;100482.97;4199589;28;20452;-40
2020/12/03 04:01:04;;;;;;;59.85;21.70;;;;;;;-0.73;90.12;100478.53;4217635;28;20104;-40
2020/12/03 04:03:06;;;;;;;72.28;22.45;;;;;;;-0.73;90.34;100478.53;4221139;28;20056;-41
2020/12/03 04:05:07;;;;;;;71.32;23.48;;;;;;;-0.76;90.17;100474.09;4225107;28;20500;-40
2020/12/03 04:07:09;;;;;;;75.13;24.20;;;;;;;-0.75;90.41;100472.44;4229411;28;20054;-40
2020/12/03 04:09:10;;;;;;;82.22;24.38;;;;;;;-0.76;90.36;100469.00;4224544;28;20055;-40
2020/12/03 04:11:15;;;;;;;69.88;23.33;;;;;;;-0.77;90.42;100469.78;4222212;28;20047;-41
2020/12/03 04:13:18;;;;;;;66.10;22.13;;;;;;;-0.77;90.31;100466.34;4223899;28;20047;-40
2020/12/03 04:15:21;;;;;;;58.70;21.80;;;;;;;-0.77;90.27;100469.78;4219713;28;20056;-40
2020/12/03 04:17:22;;;;;;;68.85;23.45;;;;;;;-0.77;90.41;100472.31;4223907;28;20047;-40
2020/12/03 04:19:24;;;;;;;65.45;20.20;;;;;;;-0.77;90.40;100469.78;4216559;28;20555;-55
2020/12/03 04:21:26;;;;;;;77.88;22.83;;;;;;;-0.75;90.39;100472.44;4214262;28;20091;-40
2020/12/03 04:23:29;;;;;;;60.42;23.50;;;;;;;-0.75;90.49;100469.88;4225080;28;20044;-40
2020/12/03 04:25:30;;;;;;;61.83;21.95;;;;;;;-0.75;90.46;100473.34;4223918;28;20508;-40
2020/12/03 04:27:32;;;;;;;59.78;21.80;;;;;;;-0.75;90.37;100467.34;4218895;28;20412;-40
2020/12/03 04:29:33;;;;;;;70.32;21.13;;;;;;;-0.76;90.49;100474.09;4223591;28;20047;-53
2020/12/03 04:31:35;;;;;;;60.85;19.10;;;;;;;-0.76;90.50;100470.69;4221158;28;20041;-54
2020/12/03 04:33:37;;;;;;;63.22;20.30;;;;;;;-0.77;90.50;100474.00;4229506;28;20048;-40
2020/12/03 04:35:38;;;;;;;62.30;20.75;;;;;;;-0.78;90.46;100474.78;4225814;28;20048;-40
2020/12/03 04:37:40;;;;;;;59.38;20.63;;;;;;;-0.79;90.19;100478.97;4224966;28;20086;-40
2020/12/03 04:39:41;;;;;;;60.15;21.33;;;;;;;-0.79;90.37;100478.97;4224899;28;20107;-54
2020/12/03 04:41:43;;;;;;;63.17;21.17;;;;;;;-0.77;90.59;100485.06;4224547;28;20051;-55
2020/12/03 04:43:49;;;;;;;70.20;20.92;;;;;;;-0.77;90.38;100485.06;4225709;28;20424;-40
2020/12/03 04:45:56;;;;;;;60.70;20.60;;;;;;;-0.77;90.37;100487.59;4222529;28;20055;-51
2020/12/03 04:48:10;;;;;;;59.08;20.85;;;;;;;-0.75;90.60;100487.72;4205788;28;20048;-54
2020/12/03 04:50:20;;;;;;;51.05;17.80;;;;;;;-0.74;90.47;100495.47;4203293;28;20048;-40
2020/12/03 04:52:42;;;;;;;52.42;19.10;;;;;;;-0.73;90.56;100488.72;4224647;28;20558;-55
2020/12/03 04:54:47;;;;;;;56.28;20.60;;;;;;;-0.72;90.50;100491.38;4195466;28;20079;-53
2020/12/03 04:57:05;;;;;;;47.70;18.23;;;;;;;-0.70;90.44;100482.97;4223906;28;20052;-40
2020/12/03 04:59:15;;;;;;;50.80;18.10;;;;;;;-0.71;90.46;100479.53;4221693;28;20423;-54
2020/12/03 05:02:01;;;;;;;53.78;19.92;;;;;;;-0.73;90.38;100481.97;4217167;28;20048;-54
2020/12/03 05:04:08;;;;;;;54.85;17.00;;;;;;;-0.75;90.50;100482.63;4157331;28;20045;-54
2020/12/03 05:06:26;;;;;;;48.28;17.80;;;;;;;-0.74;90.23;100484.41;4156167;28;20045;-54
2020/12/03 05:08:35;;;;;;;56.50;19.92;;;;;;;-0.75;90.20;100478.44;4168220;28;20052;-54
2020/12/03 05:10:40;;;;;;;49.60;18.27;;;;;;;-0.75;90.19;100477.53;4229283;28;20469;-40
2020/12/03 05:12:43;;;;;;;56.03;20.35;;;;;;;-0.76;90.20;100481.75;4224898;28;20059;-54
2020/12/03 05:14:49;;;;;;;65.03;19.83;;;;;;;-0.74;90.42;100476.78;4219834;28;20048;-40
2020/12/03 05:17:02;;;;;;;61.28;20.20;;;;;;;-0.73;90.44;100481.06;4216190;28;20043;-40
2020/12/03 05:19:14;;;;;;;59.25;20.40;;;;;;;-0.74;90.28;100477.66;4221256;28;20043;-40
2020/12/03 05:21:23;;;;;;;46.83;16.92;;;;;;;-0.72;90.63;100478.63;4217358;28;20586;-40
2020/12/03 05:23:27;;;;;;;52.65;17.80;;;;;;;-0.72;90.52;100476.09;4227401;28;20050;-54
2020/12/03 05:25:29;;;;;;;50.35;18.70;;;;;;;-0.72;90.35;100483.72;4218803;28;20048;-55
2020/12/03 05:27:34;;;;;;;60.25;20.23;;;;;;;-0.73;90.35;100474.34;4212139;28;20048;-53
2020/12/03 05:29:35;;;;;;;47.75;19.05;;;;;;;-0.73;90.26;100476.88;4213421;28;20048;-53
2020/12/03 05:31:40;;;;;;;51.17;19.40;;;;;;;-0.75;90.35;100481.00;4225696;28;20524;-40
2020/12/03 05:33:42;;;;;;;58.45;20.27;;;;;;;-0.75;90.45;100482.63;4212970;28;20105;-55
2020/12/03 05:35:45;;;;;;;52.17;18.77;;;;;;;-0.76;90.48;100485.97;4218172;28;20051;-40
2020/12/03 05:37:46;;;;;;;50.67;18.95;;;;;;;-0.76;90.30;100491.94;4224098;28;20044;-40
2020/12/03 05:39:55;;;;;;;55.03;20.40;;;;;;;-0.76;90.54;100493.59;4222855;28;20053;-40
2020/12/03 05:42:00;;;;;;;57.30;19.33;;;;;;;-0.75;90.60;100490.28;4195415;28;20053;-55
2020/12/03 05:44:06;;;;;;;58.67;21.38;;;;;;;-0.76;90.44;100491.94;4223442;28;20055;-56
2020/12/03 05:46:08;;;;;;;55.28;19.50;;;;;;;-0.75;90.55;100485.16;4219732;28;20051;-40
2020/12/03 05:48:15;;;;;;;56.47;19.48;;;;;;;-0.74;90.51;100486.97;4224109;28;20423;-56
2020/12/03 05:50:33;;;;;;;63.03;20.90;;;;;;;-0.70;90.76;100498.25;4211561;28;20054;-40
2020/12/03 05:52:36;;;;;;;52.97;19.23;;;;;;;-0.71;90.55;100494.84;4225622;28;20048;-40
2020/12/03 05:54:37;;;;;;;50.83;17.65;;;;;;;-0.71;90.67;100499.94;4227020;28;20043;-41
2020/12/03 05:56:39;;;;;;;58.58;19.23;;;;;;;-0.70;90.69;100509.31;4223696;28;20052;-40
2020/12/03 05:58:40;;;;;;;62.72;19.38;;;;;;;-0.70;90.53;100498.25;4222446;28;20054;-40
2020/12/03 06:00:42;;;;;;;48.20;18.33;;;;;;;-0.70;90.31;100498.25;4223202;28;20069;-40
2020/12/03 06:02:54;;;;;;;51.17;17.85;;;;;;;-0.71;90.43;100499.94;4213686;28;20044;-40
2020/12/03 06:05:12;;;;;;;48.97;18.33;;;;;;;-0.69;90.67;100500.00;4212512;28;20445;-40
2020/12/03 06:07:56;;;;;;;57.22;18.30;;;;;;;-0.67;90.56;100499.34;4218850;28;20044;-40
2020/12/03 06:10:10;;;;;;;80.28;23.77;;;;;;;-0.66;90.60;100497.69;4171918;28;20506;-40
2020/12/03 06:12:25;;;;;;;48.95;19.58;;;;;;;-0.59;90.68;100495.72;4224532;28;20105;-40
2020/12/03 06:15:17;;;;;;;78.85;21.48;;;;;;;-0.57;90.51;100498.34;4223928;28;20052;-55
2020/12/03 06:17:34;;;;;;;60.03;23.17;;;;;;;-0.55;90.28;100496.81;4144060;28;20089;-41
2020/12/03 06:19:51;;;;;;;56.17;18.67;;;;;;;-0.55;90.36;100494.25;4195759;28;20044;-41
2020/12/03 06:22:16;;;;;;;52.80;17.55;;;;;;;-0.57;90.25;100490.69;4225164;28;20075;-40
2020/12/03 06:24:33;;;;;;;51.95;17.73;;;;;;;-0.59;90.16;100492.25;4196597;28;20049;-56
2020/12/03 06:26:51;;;;;;;48.53;16.55;;;;;;;-0.59;90.10;100500.81;4215363;28;20051;-56
2020/12/03 06:29:10;;;;;;;44.17;16.35;;;;;;;-0.58;90.29;100499.13;4224801;28;20059;-57
2020/12/03 06:31:23;;;;;;;59.90;19.80;;;;;;;-0.59;90.20;100493.16;4226561;28;20055;-55
2020/12/03 06:33:40;;;;;;;50.22;16.35;;;;;;;-0.59;89.93;100495.72;4223598;28;20044;-55
2020/12/03 06:35:45;;;;;;;56.28;18.58;;;;;;;-0.58;90.23;100497.47;4226294;28;20071;-56
2020/12/03 06:37:51;;;;;;;;;;;;;;;-0.55;90.17;100499.34;4219854;28;20098;-56
2020/12/03 06:39:59;;;;;;;37.17;16.27;;;;;;;-0.54;90.10;100498.56;4221434;28;19924;-56
2020/12/03 06:42:09;;;;;;;40.33;14.55;;;;;;;-0.54;89.87;100496.88;4212261;28;20044;-56
2020/12/03 06:44:17;;;;;;;46.30;17.27;;;;;;;-0.52;89.82;100502.09;4211572;28;20052;-40
2020/12/03 06:46:45;;;;;;;42.40;14.98;;;;;;;-0.52;89.87;100484.25;4211117;28;20442;-40
2020/12/03 06:49:21;;;;;;;53.78;18.48;;;;;;;-0.50;89.78;100494.56;4202668;28;20062;-55
2020/12/03 06:51:46;;;;;;;42.17;15.55;;;;;;;-0.49;89.61;100504.00;4222333;28;20092;-57
2020/12/03 06:54:22;;;;;;;39.13;14.88;;;;;;;-0.50;89.79;100505.66;4225719;28;20465;-40
2020/12/03 06:57:04;;;;;;;45.53;16.48;;;;;;;-0.51;89.38;100506.44;4191226;28;20097;-40
2020/12/03 06:59:26;;;;;;;46.95;17.90;;;;;;;-0.54;89.30;100502.00;4213276;28;20048;-41
2020/12/03 07:02:10;;;;;;;45.72;14.85;;;;;;;-0.53;89.58;100508.88;4210384;28;20055;-40
2020/12/03 07:04:41;;;;;;;40.38;16.27;;;;;;;-0.53;89.51;100506.31;4208359;28;20044;-40
2020/12/03 07:07:16;;;;;;;45.60;18.08;;;;;;;-0.51;89.47;100495.38;4205333;28;20051;-40
2020/12/03 07:09:42;;;;;;;41.33;16.03;;;;;;;-0.51;89.50;100501.34;4199115;28;20377;-40
2020/12/03 07:12:08;;;;;;;44.72;18.02;;;;;;;-0.50;89.42;100509.84;4212827;28;20122;-40
2020/12/03 07:14:24;;;;;;;;;;;;;;;-0.51;89.47;100514.06;4214143;28;20059;-41
2020/12/03 07:16:58;;;;;;;40.63;15.32;;;;;;;-0.50;89.40;100512.41;4218324;28;19924;-41
2020/12/03 07:19:40;;;;;;;41.83;16.13;;;;;;;-0.48;89.65;100510.84;4209985;28;20421;-40
2020/12/03 07:22:06;;;;;;;50.20;15.27;;;;;;;-0.48;89.51;100518.50;4176038;28;20056;-40
2020/12/03 07:24:11;;;;;;;38.65;16.38;;;;;;;-0.47;89.38;100510.09;4220350;28;20079;-41
2020/12/03 07:26:37;;;;;;;44.20;15.65;;;;;;;-0.46;89.69;100510.19;4213929;28;20067;-40
2020/12/03 07:28:39;;;;;;;43.60;15.93;;;;;;;-0.45;89.62;100519.59;4200165;28;20048;-40
2020/12/03 07:30:47;;;;;;;45.90;16.55;;;;;;;-0.44;89.51;100513.72;4209654;28;20048;-40
2020/12/03 07:32:53;;;;;;;49.28;17.38;;;;;;;-0.41;89.35;100515.59;4211649;28;20044;-40
2020/12/03 07:35:02;;;;;;;41.28;15.93;;;;;;;-0.41;89.60;100518.16;4218647;28;20453;-40
2020/12/03 07:37:16;;;;;;;43.67;14.75;;;;;;;-0.42;89.56;100517.28;4216646;28;20081;-40
2020/12/03 07:39:21;;;;;;;63.38;19.65;;;;;;;-0.42;89.41;100518.94;4221598;28;20058;-40
2020/12/03 07:43:01;;;;;;;50.85;16.63;;;;;;;-0.41;89.46;100519.06;3578890;27;20359;-40
2020/12/03 07:44:44;;;;;;;47.13;16.45;;;;;;;-0.42;89.68;100516.41;3560167;27;20042;-40
2020/12/03 07:46:38;;;;;;;61.80;19.35;;;;;;;-0.41;89.68;100515.59;3552157;27;20046;-40
2020/12/03 07:48:24;;;;;;;44.35;15.93;;;;;;;-0.41;89.56;100518.16;3550969;27;20103;-40
2020/12/03 07:50:07;;;;;;;44.42;16.33;;;;;;;-0.40;89.49;100519.94;3558074;27;20077;-39
2020/12/03 07:52:18;;;;;;;44.22;15.90;;;;;;;-0.41;89.63;100519.06;3562522;27;20134;-40
2020/12/03 07:54:23;;;;;;;42.40;15.32;;;;;;;-0.41;89.56;100516.50;3552157;27;20050;-40
2020/12/03 07:56:37;;;;;;;72.32;19.67;;;;;;;-0.41;89.27;100506.31;3561662;27;20047;-40
2020/12/03 07:58:32;;;;;;;59.83;19.00;;;;;;;-0.41;89.69;100515.59;3481601;28;20456;-40
2020/12/03 08:00:45;;;;;;;51.60;18.13;;;;;;;-0.41;89.43;100501.22;3512156;27;20572;-39
2020/12/03 08:02:51;;;;;;;49.00;18.42;;;;;;;-0.39;89.57;100508.97;3540132;27;20057;-40
2020/12/03 08:04:35;;;;;;;50.67;16.98;;;;;;;-0.36;89.86;100511.72;3557752;27;20166;-40
2020/12/03 08:06:28;;;;;;;51.22;18.58;;;;;;;-0.35;89.76;100513.50;3559242;27;20038;-40
2020/12/03 08:08:27;;;;;;;58.33;19.58;;;;;;;-0.38;89.67;100506.53;3557687;27;20492;-40
2020/12/03 08:10:45;;;;;;;45.05;18.45;;;;;;;-0.39;89.77;100501.34;3553551;27;20039;-40
2020/12/03 08:12:28;;;;;;;49.50;17.75;;;;;;;-0.40;89.62;100508.06;3554936;27;20050;-40
2020/12/03 08:14:38;;;;;;;52.77;18.20;;;;;;;-0.41;89.80;100506.31;3561072;27;20126;-40
2020/12/03 08:16:33;;;;;;;54.17;20.42;;;;;;;-0.42;89.46;100509.63;3555960;27;20050;-39
2020/12/03 08:18:36;;;;;;;58.58;20.17;;;;;;;-0.41;89.83;100510.50;3554794;27;20059;-39
2020/12/03 08:20:42;;;;;;;61.58;20.98;;;;;;;-0.40;89.80;100505.53;3562955;27;20417;-40
2020/12/03 08:22:26;;;;;;;54.47;19.88;;;;;;;-0.39;89.81;100506.44;3559050;27;20042;-40
2020/12/03 08:24:16;;;;;;;54.72;18.90;;;;;;;-0.39;89.83;100497.09;3557002;27;20066;-40
2020/12/03 08:25:59;;;;;;;58.90;19.80;;;;;;;-0.37;89.86;100498.09;3558399;27;20050;-39
2020/12/03 08:27:41;;;;;;;45.75;19.45;;;;;;;-0.38;89.81;100504.00;3562054;27;20317;-39
2020/12/03 08:29:44;;;;;;;51.85;20.27;;;;;;;-0.39;89.93;100498.78;3557623;27;20082;-40
2020/12/03 08:31:25;;;;;;;50.75;18.63;;;;;;;-0.40;89.87;100499.53;3557066;27;20049;-40
2020/12/03 08:33:10;;;;;;;59.45;19.98;;;;;;;-0.39;89.96;100499.66;3562639;27;20043;-40
2020/12/03 08:34:52;;;;;;;58.08;20.52;;;;;;;-0.39;89.62;100496.22;3560569;27;20080;-39
2020/12/03 08:36:34;;;;;;;52.20;20.15;;;;;;;-0.41;89.67;100491.03;3563484;27;20050;-40
2020/12/03 08:38:19;;;;;;;55.08;19.35;;;;;;;-0.40;89.62;100497.88;3557997;27;20081;-40
2020/12/03 08:40:03;;;;;;;53.70;20.23;;;;;;;-0.40;89.73;100494.44;3555808;27;20043;-40
2020/12/03 08:41:49;;;;;;;57.17;19.50;;;;;;;-0.42;89.76;100499.44;3559719;27;20143;-39
2020/12/03 08:43:32;;;;;;;59.65;21.90;;;;;;;-0.43;89.99;100492.59;3550967;27;20047;-40
2020/12/03 08:45:15;;;;;;;59.20;20.77;;;;;;;-0.42;89.80;100490.91;3551241;27;20043;-41
2020/12/03 08:47:01;;;;;;;53.58;19.80;;;;;;;-0.42;89.75;100480.72;3554379;27;20047;-40
2020/12/03 08:48:44;;;;;;;61.00;20.92;;;;;;;-0.40;90.01;100476.59;3560130;27;20050;-40
2020/12/03 08:50:25;;;;;;;67.25;21.73;;;;;;;-0.40;90.09;100480.03;3555611;27;20047;-40
2020/12/03 08:52:07;;;;;;;68.50;21.70;;;;;;;-0.40;89.79;100474.94;3550144;27;20055;-40
2020/12/03 08:53:49;;;;;;;52.78;19.42;;;;;;;-0.40;90.03;100469.84;3542556;27;20107;-40
2020/12/03 08:55:31;;;;;;;61.13;21.63;;;;;;;-0.38;90.04;100463.22;3542457;27;20062;-40
2020/12/03 08:57:16;;;;;;;67.72;23.08;;;;;;;-0.37;90.02;100461.53;3540164;28;20483;-40
2020/12/03 08:59:08;;;;;;;72.85;23.45;;;;;;;-0.37;89.81;100462.41;3542219;27;20047;-40
2020/12/03 09:00:52;;;;;;;62.75;22.58;;;;;;;-0.38;90.10;100447.91;3544562;27;20046;-40
2020/12/03 09:02:34;;;;;;;69.15;23.50;;;;;;;-0.36;89.79;100453.09;3553087;27;20116;-40
2020/12/03 09:04:23;;;;;;;68.47;23.50;;;;;;;-0.35;89.83;100452.31;3544201;27;20073;-40
2020/12/03 09:06:07;;;;;;;67.40;23.20;;;;;;;-0.33;89.82;100450.75;3549270;27;20129;-40
2020/12/03 09:07:52;;;;;;;62.45;21.65;;;;;;;-0.33;89.93;100451.63;3553044;27;20068;-41
2020/12/03 09:09:37;;;;;;;67.15;22.20;;;;;;;-0.34;89.74;100443.91;3547014;27;20043;-40
2020/12/03 09:11:18;;;;;;;71.10;24.25;;;;;;;-0.34;89.92;100449.88;3548952;27;20095;-41
2020/12/03 09:13:00;;;;;;;58.88;22.58;;;;;;;-0.34;89.91;100449.88;3553677;27;20046;-40
2020/12/03 09:14:43;;;;;;;74.38;25.40;;;;;;;-0.35;89.58;100442.13;3548545;27;20054;-40
2020/12/03 09:16:26;;;;;;;80.82;25.58;;;;;;;-0.36;89.92;100451.44;3552180;27;20046;-41
2020/12/03 09:18:08;;;;;;;57.03;21.83;;;;;;;-0.37;89.42;100444.56;3553914;27;20070;-41
2020/12/03 09:19:51;;;;;;;55.08;20.58;;;;;;;-0.36;89.97;100442.91;3548890;27;20382;-40
2020/12/03 09:21:33;;;;;;;62.35;21.52;;;;;;;-0.36;90.03;100442.91;3552002;27;20051;-41